.
WxDataArchive / Data Records for 2014-08-30
2014-08-29 August 2014 2014-08-31

Data Records for Saturday, 30 August 2014

Time	Temp	Chill	HIndex	Humid	Dewpt	 Wind 	HiWind	WindDir	Rain 	Barom
-----	----	-----	------	-----	-----	------	------	-------	-----	-----
00:00	72.5	72.5	72.5	81	66.3	0	0	---	0.00	29.952 
00:05	72.5	72.5	72.5	81	66.3	0	0	---	0.00	29.952 
00:10	72.5	72.5	72.5	81	66.3	0	1	112	0.00	29.952 
00:15	72.3	72.3	72.3	81	66.1	0	1	112	0.00	29.948 
00:20	72.3	72.3	72.3	81	66.1	0	1	112	0.00	29.948 
00:25	72.1	72.1	72.1	81	65.9	0	1	112	0.00	29.948 
00:30	72.1	72.1	72.1	82	66.3	0	1	112	0.00	29.948 
00:35	72.1	72.1	72.1	81	65.9	0	1	112	0.00	29.948 
00:40	72.1	72.1	72.1	81	65.9	0	1	112	0.00	29.948 
00:45	72.3	72.3	72.3	81	66.1	0	1	112	0.00	29.948 
00:50	72.3	72.3	72.3	81	66.1	0	3	112	0.00	29.948 
00:55	72.5	72.5	72.5	80	66.0	0	1	112	0.00	29.948 
01:00	72.7	72.7	72.7	80	66.2	0	3	112	0.00	29.948 
01:05	73.0	73.0	73.0	79	66.1	1	4	112	0.00	29.948 
01:10	73.2	73.2	73.2	78	65.9	0	4	90	0.00	29.948 
01:15	73.3	73.3	73.3	78	66.0	0	5	90	0.00	29.947 
01:20	73.5	73.5	73.5	77	65.8	0	2	90	0.00	29.947 
01:25	73.7	73.7	73.7	77	66.0	0	3	90	0.00	29.947 
01:30	73.7	73.7	73.7	77	66.0	1	5	90	0.00	29.946 
01:35	73.9	73.9	73.9	77	66.2	1	3	90	0.00	29.946 
01:40	73.9	73.9	73.9	77	66.2	0	2	292	0.00	29.946 
01:45	73.9	73.9	73.9	77	66.2	0	4	90	0.00	29.944 
01:50	74.0	74.0	74.0	77	66.3	0	3	135	0.00	29.944 
01:55	74.0	74.0	74.0	76	65.9	0	3	112	0.00	29.944 
02:00	74.0	74.0	74.0	76	65.9	0	2	135	0.00	29.938 
02:05	74.0	74.0	74.0	76	65.9	0	2	135	0.00	29.938 
02:10	74.0	74.0	74.0	77	66.3	0	1	135	0.00	29.938 
02:15	74.0	74.0	74.0	77	66.3	0	2	112	0.00	29.932 
02:20	73.9	73.9	73.9	77	66.2	0	1	112	0.00	29.932 
02:25	73.9	73.9	73.9	77	66.2	0	2	112	0.00	29.932 
02:30	73.9	73.9	73.9	77	66.2	0	1	180	0.00	29.926 
02:35	73.7	73.7	73.7	77	66.0	0	2	158	0.00	29.926 
02:40	73.7	73.7	73.7	77	66.0	0	2	158	0.00	29.926 
02:45	73.7	73.7	73.7	77	66.0	0	2	158	0.00	29.925 
02:50	73.5	73.5	73.5	78	66.2	0	1	158	0.00	29.925 
02:55	73.5	73.5	73.5	78	66.2	1	4	112	0.00	29.925 
03:00	73.5	73.5	73.5	78	66.2	0	1	112	0.00	29.923 
03:05	73.3	73.3	73.3	78	66.0	0	1	112	0.00	29.923 
03:10	73.2	73.2	73.2	79	66.3	0	1	112	0.00	29.923 
03:15	73.0	73.0	73.0	79	66.1	0	2	90	0.00	29.917 
03:20	72.8	72.8	72.8	79	65.9	0	2	90	0.00	29.917 
03:25	72.8	72.8	72.8	80	66.3	0	1	90	0.00	29.917 
03:30	72.7	72.7	72.7	80	66.2	0	1	90	0.00	29.917 
03:35	72.5	72.5	72.5	80	66.0	0	1	90	0.00	29.917 
03:40	72.5	72.5	72.5	81	66.3	0	1	90	0.00	29.917 
03:45	72.3	72.3	72.3	81	66.1	0	2	90	0.00	29.915 
03:50	72.1	72.1	72.1	81	65.9	0	1	90	0.00	29.915 
03:55	72.0	72.0	72.0	81	65.8	0	1	90	0.00	29.915 
04:00	72.0	72.0	72.0	82	66.2	0	3	90	0.00	29.911 
04:05	71.8	71.8	71.8	82	66.0	0	2	90	0.00	29.911 
04:10	71.8	71.8	71.8	82	66.0	0	1	90	0.00	29.911 
04:15	71.6	71.6	71.6	82	65.8	0	1	90	0.00	29.912 
04:20	71.6	71.6	71.6	82	65.8	0	1	90	0.00	29.912 
04:25	71.5	71.5	71.5	82	65.7	0	1	90	0.00	29.912 
04:30	71.5	71.5	71.5	82	65.7	0	1	90	0.00	29.911 
04:35	71.3	71.3	71.3	82	65.5	0	1	90	0.00	29.911 
04:40	71.3	71.3	71.3	82	65.5	0	1	90	0.00	29.911 
04:45	71.3	71.3	71.3	82	65.5	0	1	90	0.00	29.913 
04:50	71.3	71.3	71.3	82	65.5	0	1	90	0.00	29.913 
04:55	71.1	71.1	71.1	82	65.3	0	1	90	0.00	29.913 
05:00	71.1	71.1	71.1	82	65.3	0	1	90	0.00	29.911 
05:05	71.1	71.1	71.1	82	65.3	0	1	90	0.00	29.911 
05:10	70.9	70.9	70.9	82	65.1	0	1	90	0.00	29.911 
05:15	70.9	70.9	70.9	83	65.5	0	2	90	0.00	29.912 
05:20	70.8	70.8	70.8	83	65.4	0	1	90	0.00	29.912 
05:25	70.8	70.8	70.8	83	65.4	0	1	90	0.00	29.912 
05:30	70.6	70.6	70.6	83	65.2	0	1	90	0.00	29.913 
05:35	70.6	70.6	70.6	83	65.2	0	1	90	0.00	29.913 
05:40	70.6	70.6	70.6	83	65.2	0	1	90	0.00	29.913 
05:45	70.4	70.4	70.4	83	65.0	0	0	---	0.00	29.913 
05:50	70.3	70.3	70.3	84	65.2	0	1	90	0.00	29.913 
05:55	70.3	70.3	70.3	84	65.2	0	2	90	0.00	29.913 
06:00	70.3	70.3	70.3	84	65.2	0	1	90	0.00	29.914 
06:05	70.1	70.1	70.1	84	65.0	0	2	90	0.00	29.914 
06:10	70.1	70.1	70.1	84	65.0	0	1	90	0.00	29.914 
06:15	70.1	70.1	70.1	84	65.0	0	1	90	0.00	29.915 
06:20	69.9	69.9	69.9	84	64.8	0	1	90	0.00	29.915 
06:25	69.9	69.9	69.9	84	64.8	0	1	90	0.00	29.915 
06:30	69.9	69.9	69.9	84	64.8	0	2	90	0.00	29.914 
06:35	69.9	69.9	69.9	84	64.8	0	1	90	0.00	29.914 
06:40	69.8	69.8	69.8	84	64.7	0	1	90	0.00	29.914 
06:45	69.8	69.8	69.8	84	64.7	0	1	90	0.00	29.915 
06:50	69.8	69.8	69.8	84	64.7	0	1	90	0.00	29.915 
06:55	69.8	69.8	69.8	84	64.7	0	1	90	0.00	29.915 
07:00	69.8	69.8	69.8	83	64.4	0	2	90	0.00	29.924 
07:05	69.9	69.9	69.9	83	64.5	0	2	90	0.00	29.924 
07:10	69.9	69.9	69.9	83	64.5	0	1	90	0.00	29.924 
07:15	69.9	69.9	69.9	82	64.1	0	1	90	0.00	29.924 
07:20	70.1	70.1	70.1	82	64.3	0	1	90	0.00	29.924 
07:25	70.1	70.1	70.1	82	64.3	0	1	90	0.00	29.924 
07:30	70.3	70.3	70.3	82	64.5	0	1	90	0.00	29.921 
07:35	70.3	70.3	70.3	81	64.2	0	2	90	0.00	29.921 
07:40	70.6	70.6	70.6	81	64.5	0	1	90	0.00	29.921 
07:45	70.8	70.8	70.8	81	64.7	0	1	90	0.00	29.919 
07:50	71.1	71.1	71.1	80	64.6	0	2	90	0.00	29.919 
07:55	71.3	71.3	71.3	79	64.4	0	1	90	0.00	29.919 
08:00	71.5	71.5	71.5	79	64.6	0	2	90	0.00	29.924 
08:05	71.5	71.5	71.5	78	64.3	0	1	90	0.00	29.924 
08:10	71.5	71.5	71.5	78	64.3	0	1	90	0.00	29.924 
08:15	71.5	71.5	71.5	78	64.3	0	1	90	0.00	29.928 
08:20	71.6	71.6	71.6	79	64.7	0	3	90	0.00	29.928 
08:25	71.8	71.8	71.8	78	64.6	0	1	90	0.00	29.928 
08:30	72.1	72.1	72.1	77	64.5	0	1	90	0.00	29.925 
08:35	72.3	72.3	72.3	77	64.7	0	1	90	0.00	29.925 
08:40	72.5	72.5	72.5	77	64.9	0	1	90	0.00	29.925 
08:45	72.8	72.8	72.8	76	64.8	0	1	90	0.00	29.923 
08:50	73.2	73.2	73.2	76	65.2	0	2	90	0.00	29.923 
08:55	73.3	73.3	73.3	75	64.9	0	2	90	0.00	29.923 
09:00	73.7	73.7	73.7	74	64.9	0	2	90	0.00	29.917 
09:05	73.9	73.9	73.9	74	65.1	0	2	90	0.00	29.917 
09:10	73.9	73.9	73.9	74	65.1	0	5	292	0.00	29.917 
09:15	74.0	74.0	74.0	73	64.8	0	2	292	0.00	29.926 
09:20	74.2	74.2	74.2	74	65.4	0	1	292	0.00	29.926 
09:25	74.2	74.2	74.2	73	65.0	1	4	68	0.00	29.926 
09:30	74.4	74.4	74.4	73	65.2	0	3	68	0.00	29.926 
09:35	74.4	74.4	74.4	73	65.2	0	1	45	0.00	29.926 
09:40	74.6	74.6	74.6	73	65.4	0	1	45	0.00	29.926 
09:45	74.6	74.6	74.6	73	65.4	0	4	292	0.00	29.925 
09:50	74.6	74.6	74.6	73	65.4	0	3	0	0.00	29.925 
09:55	74.7	74.7	74.7	74	65.8	0	2	338	0.00	29.925 
10:00	74.7	74.7	74.7	73	65.5	1	4	315	0.00	29.919 
10:05	74.9	74.9	74.9	73	65.6	0	2	315	0.00	29.919 
10:10	75.1	75.1	76.5	73	65.8	0	3	315	0.00	29.919 
10:15	75.3	75.3	76.7	73	66.0	0	2	315	0.00	29.921 
10:20	75.4	75.4	76.8	73	66.1	0	2	135	0.00	29.921 
10:25	75.6	75.6	77.0	73	66.3	0	1	202	0.00	29.921 
10:30	75.8	75.8	77.3	72	66.1	0	3	45	0.00	29.924 
10:35	75.8	75.8	77.3	73	66.5	0	2	45	0.00	29.924 
10:40	76.0	76.0	77.5	73	66.7	1	4	270	0.00	29.924 
10:45	76.3	76.3	77.9	72	66.6	1	3	338	0.00	29.929 
10:50	76.3	76.3	77.9	71	66.2	1	7	90	0.00	29.929 
10:55	76.5	76.5	78.2	71	66.4	1	4	292	0.00	29.929 
11:00	76.5	76.5	78.2	71	66.4	1	5	270	0.00	29.925 
11:05	76.5	76.5	78.2	70	66.0	1	4	270	0.00	29.925 
11:10	76.5	76.5	78.2	71	66.4	1	4	270	0.00	29.925 
11:15	76.7	76.7	78.4	71	66.6	1	4	270	0.00	29.929 
11:20	76.8	76.8	78.5	70	66.3	1	4	292	0.00	29.929 
11:25	76.7	76.7	78.4	71	66.6	1	5	292	0.00	29.929 
11:30	76.8	76.8	78.5	71	66.7	1	3	292	0.00	29.929 
11:35	77.0	77.0	78.7	72	67.3	1	3	292	0.00	29.929 
11:40	77.2	77.2	79.0	72	67.5	0	2	338	0.00	29.929 
11:45	77.4	77.4	79.3	71	67.2	1	5	270	0.00	29.928 
11:50	77.6	77.6	79.5	72	67.8	1	3	270	0.00	29.928 
11:55	78.1	78.1	80.2	71	67.9	1	4	270	0.00	29.928 
12:00	78.8	78.8	81.1	69	67.7	1	4	248	0.00	29.924 
12:05	79.0	79.0	81.4	70	68.4	1	4	270	0.00	29.924 
12:10	79.2	79.2	81.5	68	67.7	1	3	270	0.00	29.924 
12:15	79.4	79.4	81.8	68	67.9	1	4	270	0.00	29.925 
12:20	79.4	79.4	81.8	68	67.9	1	5	270	0.00	29.925 
12:25	79.6	79.6	82.1	68	68.1	1	4	270	0.00	29.925 
12:30	79.8	79.8	82.3	67	67.8	1	4	270	0.00	29.926 
12:35	80.3	80.3	83.2	68	68.8	1	3	270	0.00	29.926 
12:40	80.7	80.7	83.4	65	67.8	1	4	338	0.00	29.926 
12:45	80.7	80.7	83.2	64	67.4	2	6	292	0.00	29.922 
12:50	80.5	80.5	83.1	65	67.6	2	4	270	0.00	29.922 
12:55	80.9	80.9	83.7	65	68.0	1	4	270	0.00	29.922 
13:00	80.9	80.9	83.7	65	68.0	1	3	315	0.00	29.917 
13:05	80.1	80.1	82.5	65	67.2	1	5	270	0.00	29.917 
13:10	79.8	79.8	82.2	66	67.4	2	5	270	0.00	29.917 
13:15	79.6	79.6	82.0	67	67.7	1	3	292	0.00	29.911 
13:20	79.6	79.6	81.9	66	67.2	1	4	292	0.00	29.911 
13:25	79.4	79.4	81.6	66	67.0	1	5	270	0.00	29.911 
13:30	79.4	79.4	81.7	67	67.5	1	6	270	0.00	29.910 
13:35	79.4	79.4	81.7	67	67.5	1	4	248	0.00	29.910 
13:40	79.6	79.6	82.0	67	67.7	1	4	292	0.00	29.910 
13:45	79.8	79.8	82.3	67	67.8	1	4	292	0.00	29.906 
13:50	79.9	79.9	82.3	66	67.5	1	4	292	0.00	29.906 
13:55	80.5	80.5	83.5	68	68.9	1	4	270	0.00	29.906 
14:00	82.0	82.0	85.2	64	68.6	1	4	112	0.00	29.901 
14:05	83.0	83.0	85.9	60	67.7	2	5	292	0.00	29.901 
14:10	83.0	83.0	86.4	62	68.6	1	3	292	0.00	29.901 
14:15	83.0	83.0	86.1	61	68.1	2	5	270	0.00	29.896 
14:20	82.8	82.8	86.1	62	68.4	1	10	270	0.00	29.896 
14:25	83.0	83.0	86.1	61	68.1	1	5	270	0.00	29.896 
14:30	83.0	83.0	86.1	61	68.1	1	5	292	0.00	29.894 
14:35	82.8	82.8	85.6	60	67.5	2	4	292	0.00	29.894 
14:40	82.6	82.6	85.7	62	68.2	1	4	45	0.00	29.894 
14:45	83.0	83.0	86.1	61	68.1	1	4	315	0.00	29.894 
14:50	83.6	83.6	86.9	60	68.2	2	7	270	0.00	29.894 
14:55	83.6	83.6	86.4	58	67.2	2	6	292	0.00	29.894 
15:00	83.6	83.6	86.6	59	67.7	1	4	248	0.00	29.887 
15:05	83.8	83.8	86.9	59	67.9	1	5	292	0.00	29.887 
15:10	84.3	84.3	88.0	60	68.9	2	7	45	0.00	29.887 
15:15	84.3	84.3	87.8	59	68.4	1	6	90	0.00	29.885 
15:20	84.1	84.1	87.4	59	68.2	1	4	292	0.00	29.885 
15:25	83.2	83.2	86.7	62	68.8	1	5	292	0.00	29.885 
15:30	82.4	82.4	85.4	62	68.0	2	5	292	0.00	29.884 
15:35	82.2	82.2	84.9	61	67.4	2	6	292	0.00	29.884 
15:40	81.8	81.8	84.3	61	67.0	2	7	248	0.00	29.884 
15:45	81.4	81.4	84.1	63	67.6	2	5	248	0.00	29.883 
15:50	81.4	81.4	84.1	63	67.6	1	4	248	0.00	29.883 
15:55	81.8	81.8	84.9	64	68.4	1	6	112	0.00	29.883 
16:00	81.8	81.8	84.7	63	67.9	2	6	90	0.00	29.878 
16:05	82.0	82.0	85.2	64	68.6	1	4	90	0.00	29.878 
16:10	82.2	82.2	85.3	63	68.3	1	4	270	0.00	29.878 
16:15	82.2	82.2	85.5	64	68.8	1	4	270	0.00	29.879 
16:20	82.2	82.2	85.5	64	68.8	1	5	338	0.00	29.879 
16:25	82.2	82.2	85.3	63	68.3	1	3	270	0.00	29.879 
16:30	82.6	82.6	86.2	64	69.2	0	3	270	0.00	29.876 
16:35	82.6	82.6	85.7	62	68.2	2	5	248	0.00	29.876 
16:40	82.6	82.6	85.7	62	68.2	1	4	315	0.00	29.876 
16:45	82.2	82.2	85.3	63	68.3	1	4	270	0.00	29.869 
16:50	81.8	81.8	84.9	64	68.4	1	3	270	0.00	29.869 
16:55	81.6	81.6	84.6	64	68.2	0	4	315	0.00	29.869 
17:00	81.4	81.4	84.3	64	68.0	1	5	270	0.00	29.864 
17:05	81.4	81.4	84.3	64	68.0	1	4	248	0.00	29.864 
17:10	81.4	81.4	84.4	65	68.5	1	3	292	0.00	29.864 
17:15	81.6	81.6	84.7	65	68.7	1	4	22	0.00	29.855 
17:20	81.6	81.6	84.7	65	68.7	1	3	270	0.00	29.855 
17:25	81.2	81.2	84.1	65	68.3	1	4	248	0.00	29.855 
17:30	81.2	81.2	84.3	66	68.7	1	3	0	0.00	29.860 
17:35	81.2	81.2	84.5	67	69.2	0	5	292	0.00	29.860 
17:40	81.2	81.2	84.3	66	68.7	1	3	248	0.00	29.860 
17:45	81.2	81.2	84.1	65	68.3	1	5	270	0.00	29.867 
17:50	81.1	81.1	84.1	66	68.6	1	4	292	0.00	29.867 
17:55	80.9	80.9	84.0	67	68.9	1	5	248	0.00	29.867 
18:00	80.7	80.7	83.7	67	68.7	0	2	248	0.00	29.870 
18:05	80.7	80.7	83.7	67	68.7	0	2	248	0.00	29.870 
18:10	80.5	80.5	83.3	67	68.5	1	4	248	0.00	29.870 
18:15	80.5	80.5	83.3	67	68.5	1	3	248	0.00	29.878 
18:20	80.5	80.5	83.5	68	68.9	1	3	248	0.00	29.878 
18:25	80.5	80.5	83.6	69	69.4	1	3	270	0.00	29.878 
18:30	80.1	80.1	83.0	69	69.0	1	4	292	0.00	29.880 
18:35	79.9	79.9	82.8	70	69.2	1	4	45	0.00	29.880 
18:40	79.8	79.8	82.6	70	69.1	1	4	270	0.00	29.880 
18:45	79.6	79.6	82.4	71	69.3	0	2	292	0.00	29.882 
18:50	79.6	79.6	82.4	71	69.3	0	2	292	0.00	29.882 
18:55	79.4	79.4	82.2	72	69.6	0	3	315	0.00	29.882 
19:00	79.4	79.4	82.2	72	69.6	0	1	315	0.00	29.881 
19:05	79.2	79.2	82.0	73	69.8	0	2	315	0.00	29.881 
19:10	79.0	79.0	81.6	73	69.6	0	3	315	0.00	29.881 
19:15	79.0	79.0	81.6	73	69.6	1	6	270	0.00	29.879 
19:20	78.8	78.8	81.3	73	69.4	0	2	270	0.00	29.879 
19:25	78.6	78.6	81.1	74	69.6	0	3	270	0.00	29.879 
19:30	78.6	78.6	81.1	74	69.6	0	3	270	0.00	29.881 
19:35	78.5	78.5	81.0	75	69.9	1	4	338	0.00	29.881 
19:40	78.3	78.3	80.6	75	69.7	1	5	270	0.00	29.881 
19:45	78.3	78.3	80.6	75	69.7	1	3	270	0.00	29.879 
19:50	78.1	78.1	80.3	75	69.5	1	5	292	0.00	29.879 
19:55	77.9	77.9	80.0	75	69.3	1	6	270	0.00	29.879 
20:00	77.7	77.7	79.7	75	69.1	0	2	292	0.00	29.882 
20:05	77.7	77.7	79.7	75	69.1	0	2	292	0.00	29.882 
20:10	77.6	77.6	79.6	75	69.0	0	3	292	0.00	29.882 
20:15	77.4	77.4	79.3	76	69.2	0	3	270	0.00	29.885 
20:20	77.2	77.2	79.0	77	69.4	0	1	315	0.00	29.885 
20:25	77.2	77.2	79.0	77	69.4	0	3	315	0.00	29.885 
20:30	77.0	77.0	78.6	78	69.6	0	2	292	0.00	29.891 
20:35	76.8	76.8	78.3	78	69.4	0	2	292	0.00	29.891 
20:40	76.7	76.7	78.1	79	69.7	0	4	292	0.00	29.891 
20:45	76.5	76.5	77.8	79	69.5	0	3	292	0.00	29.895 
20:50	76.5	76.5	77.8	80	69.9	1	4	292	0.00	29.895 
20:55	76.3	76.3	77.5	80	69.7	0	2	315	0.00	29.895 
21:00	76.1	76.1	77.1	80	69.5	1	4	270	0.00	29.896 
21:05	76.1	76.1	77.1	80	69.5	1	3	292	0.00	29.896 
21:10	76.1	76.1	77.1	80	69.5	0	4	248	0.00	29.896 
21:15	76.0	76.0	77.0	80	69.4	1	3	338	0.00	29.898 
21:20	76.0	76.0	77.0	80	69.4	0	2	270	0.00	29.898 
21:25	75.8	75.8	76.7	80	69.2	1	5	270	0.00	29.898 
21:30	75.8	75.8	76.6	81	69.5	1	4	248	0.00	29.899 
21:35	75.8	75.8	76.6	81	69.5	1	4	292	0.00	29.899 
21:40	75.8	75.8	76.6	81	69.5	0	3	292	0.00	29.899 
21:45	75.6	75.6	76.3	81	69.3	0	4	292	0.00	29.897 
21:50	75.6	75.6	76.2	82	69.7	0	2	292	0.00	29.897 
21:55	75.4	75.4	75.9	82	69.5	1	4	292	0.00	29.897 
22:00	75.4	75.4	75.9	82	69.5	0	2	22	0.00	29.899 
22:05	75.4	75.4	75.9	82	69.5	1	4	292	0.00	29.899 
22:10	75.4	75.4	75.8	83	69.9	0	3	248	0.00	29.899 
22:15	75.4	75.4	75.9	82	69.5	1	3	292	0.00	29.898 
22:20	75.4	75.4	75.9	82	69.5	1	4	270	0.00	29.898 
22:25	75.4	75.4	75.9	82	69.5	0	4	292	0.00	29.898 
22:30	75.3	75.3	75.8	82	69.4	0	4	292	0.00	29.896 
22:35	75.3	75.3	75.6	83	69.8	0	2	45	0.00	29.896 
22:40	75.3	75.3	75.6	83	69.8	0	3	292	0.00	29.896 
22:45	75.3	75.3	75.6	83	69.8	0	3	270	0.00	29.896 
22:50	75.1	75.1	75.3	83	69.6	1	4	270	0.00	29.896 
22:55	75.1	75.1	75.3	83	69.6	0	3	270	0.00	29.896 
23:00	75.1	75.1	75.3	83	69.6	0	2	292	0.00	29.897 
23:05	75.1	75.1	75.3	83	69.6	1	4	292	0.00	29.897 
23:10	74.9	74.9	74.9	83	69.4	0	2	270	0.00	29.897 
23:15	74.9	74.9	74.9	84	69.7	0	3	45	0.00	29.903 
23:20	74.9	74.9	74.9	84	69.7	0	2	22	0.00	29.903 
23:25	74.7	74.7	74.7	84	69.5	0	2	338	0.00	29.903 
23:30	74.7	74.7	74.7	84	69.5	0	3	270	0.00	29.910 
23:35	74.7	74.7	74.7	84	69.5	0	1	270	0.00	29.910 
23:40	74.7	74.7	74.7	84	69.5	0	3	270	0.00	29.910 
23:45	74.7	74.7	74.7	84	69.5	0	2	292	0.00	29.912 
23:50	74.7	74.7	74.7	84	69.5	0	2	292	0.00	29.912 
23:55	74.6	74.6	74.6	84	69.4	0	1	270	0.00	29.912 

CoCoRaHS
IN-AL-39
A2 Web Hosting
Creative Commons License
GoDaddy
search engine by freefind advanced

loaded 2018-11-17 05:40:53 • last modified 2010-11-18 10:43:29
Privacy PolicyDisclaimer
• wx.awcolley.com is powered by PmWiki v.2002016 •
• all content (unless otherwise noted) © 2018 A W Colley